createdAt,value
2017-08-09T00:00:32.279Z,17.05
2017-08-09T00:01:32.269Z,17.06
2017-08-09T00:02:32.262Z,16.95
2017-08-09T00:03:32.259Z,16.9
2017-08-09T00:04:32.264Z,17
2017-08-09T00:05:31.953Z,16.95
2017-08-09T00:06:32.248Z,17.02
2017-08-09T00:07:32.265Z,17.02
2017-08-09T00:08:31.954Z,17
2017-08-09T00:09:32.263Z,16.99
2017-08-09T00:10:32.237Z,16.92
2017-08-09T00:11:31.928Z,16.95
2017-08-09T00:12:32.269Z,16.97
2017-08-09T00:13:31.915Z,16.94
2017-08-09T00:14:31.902Z,16.82
2017-08-09T00:15:32.241Z,16.87
2017-08-09T00:16:32.259Z,16.81
2017-08-09T00:17:31.895Z,16.92
2017-08-09T00:18:32.221Z,16.87
2017-08-09T00:19:32.211Z,16.91
2017-08-09T00:20:32.206Z,16.85
2017-08-09T00:21:32.203Z,16.85
2017-08-09T00:22:31.889Z,16.73
2017-08-09T00:23:31.911Z,16.8
2017-08-09T00:24:32.205Z,16.8
2017-08-09T00:25:32.215Z,16.77
2017-08-09T00:26:31.866Z,16.74
2017-08-09T00:27:32.180Z,16.7
2017-08-09T00:28:32.177Z,16.73
2017-08-09T00:29:31.542Z,16.67
2017-08-09T00:30:31.857Z,16.74
2017-08-09T00:31:32.200Z,16.7
2017-08-09T00:32:32.194Z,16.72
2017-08-09T00:33:32.161Z,16.66
2017-08-09T00:34:31.833Z,16.67
2017-08-09T00:35:32.153Z,16.62
2017-08-09T00:36:32.152Z,16.67
2017-08-09T00:37:32.150Z,16.62
2017-08-09T00:38:31.505Z,16.54
2017-08-09T00:39:31.819Z,16.58
2017-08-09T00:40:31.820Z,16.57
2017-08-09T00:41:31.816Z,16.51
2017-08-09T00:42:32.132Z,16.52
2017-08-09T00:43:32.129Z,16.44
2017-08-09T00:44:31.832Z,16.49
2017-08-09T00:45:32.121Z,16.44
2017-08-09T00:46:32.116Z,16.49
2017-08-09T00:47:31.474Z,16.49
2017-08-09T00:48:31.797Z,16.49
2017-08-09T00:49:31.787Z,16.48
2017-08-09T00:50:32.140Z,16.51
2017-08-09T00:51:32.118Z,16.51
2017-08-09T00:52:32.102Z,16.58
2017-08-09T00:53:32.108Z,16.48
2017-08-09T00:54:32.091Z,16.44
2017-08-09T00:55:31.773Z,16.4
2017-08-09T00:56:32.088Z,16.47
2017-08-09T00:57:31.442Z,16.39
2017-08-09T00:58:31.777Z,16.39
2017-08-09T00:59:32.074Z,16.39
2017-08-09T01:00:31.773Z,16.39
2017-08-09T01:01:31.748Z,16.3
2017-08-09T01:02:32.079Z,16.33
2017-08-09T01:03:32.063Z,16.29
2017-08-09T01:04:31.735Z,16.29
2017-08-09T01:05:32.065Z,16.34
2017-08-09T01:06:32.201Z,16.25
2017-08-09T01:07:32.043Z,16.36
2017-08-09T01:08:32.052Z,16.36
2017-08-09T01:09:32.037Z,16.27
2017-08-09T01:10:32.035Z,16.29
2017-08-09T01:11:31.723Z,16.27
2017-08-09T01:12:32.048Z,16.29
2017-08-09T01:13:31.705Z,16.32
2017-08-09T01:14:32.019Z,16.3
2017-08-09T01:15:32.018Z,16.36
2017-08-09T01:16:31.694Z,16.29
2017-08-09T01:17:32.008Z,16.27
2017-08-09T01:18:31.369Z,16.27
2017-08-09T01:19:31.366Z,16.25
2017-08-09T01:20:31.695Z,16.25
2017-08-09T01:21:32.001Z,16.25
2017-08-09T01:22:31.350Z,16.21
2017-08-09T01:23:32.026Z,16.21
2017-08-09T01:24:31.983Z,16.18
2017-08-09T01:25:31.674Z,16.11
2017-08-09T01:26:31.983Z,16.08
2017-08-09T01:27:31.972Z,16.07
2017-08-09T01:28:31.979Z,16.07
2017-08-09T01:29:31.984Z,16.02
2017-08-09T01:30:31.964Z,15.95
2017-08-09T01:31:31.316Z,15.91
2017-08-09T01:32:31.644Z,15.98
2017-08-09T01:33:31.954Z,15.83
2017-08-09T01:34:31.628Z,15.86
2017-08-09T01:35:31.314Z,15.93
2017-08-09T01:36:31.619Z,15.73
2017-08-09T01:37:31.964Z,15.74
2017-08-09T01:38:31.939Z,15.77
2017-08-09T01:39:31.627Z,15.75
2017-08-09T01:40:31.603Z,15.77
2017-08-09T01:41:31.619Z,15.67
2017-08-09T01:42:31.596Z,15.77
2017-08-09T01:43:31.272Z,15.6
2017-08-09T01:44:31.808Z,15.59
2017-08-09T01:45:31.604Z,15.68
2017-08-09T01:46:31.259Z,15.73
2017-08-09T01:47:31.579Z,15.6
2017-08-09T01:48:31.569Z,15.62
2017-08-09T01:49:31.598Z,15.68
2017-08-09T01:50:31.571Z,15.59
2017-08-09T01:51:31.915Z,15.63
2017-08-09T01:52:31.880Z,15.56
2017-08-09T01:53:31.568Z,15.56
2017-08-09T01:54:31.552Z,15.55
2017-08-09T01:55:31.870Z,15.52
2017-08-09T01:56:31.876Z,15.52
2017-08-09T01:57:31.727Z,15.52
2017-08-09T01:58:31.863Z,15.56
2017-08-09T01:59:31.528Z,15.51
2017-08-09T02:00:31.529Z,15.55
2017-08-09T02:01:31.521Z,15.52
2017-08-09T02:02:32.092Z,15.49
2017-08-09T02:03:31.830Z,15.53
2017-08-09T02:04:31.598Z,15.53
2017-08-09T02:05:31.502Z,15.56
2017-08-09T02:06:31.507Z,15.52
2017-08-09T02:07:31.493Z,15.53
2017-08-09T02:08:31.178Z,15.47
2017-08-09T02:09:31.875Z,15.51
2017-08-09T02:10:31.946Z,15.56
2017-08-09T02:11:31.806Z,15.52
2017-08-09T02:12:31.819Z,15.53
2017-08-09T02:13:31.152Z,15.62
2017-08-09T02:14:31.491Z,15.53
2017-08-09T02:15:31.787Z,15.62
2017-08-09T02:16:31.460Z,15.65
2017-08-09T02:17:31.779Z,15.63
2017-08-09T02:18:31.450Z,15.63
2017-08-09T02:19:31.778Z,15.62
2017-08-09T02:20:31.770Z,15.68
2017-08-09T02:21:31.759Z,15.62
2017-08-09T02:22:31.134Z,15.6
2017-08-09T02:23:31.752Z,15.71
2017-08-09T02:24:31.746Z,15.6
2017-08-09T02:25:31.742Z,15.65
2017-08-09T02:26:31.742Z,15.74
2017-08-09T02:27:31.757Z,15.63
2017-08-09T02:28:31.422Z,15.7
2017-08-09T02:29:31.743Z,15.68
2017-08-09T02:30:31.401Z,15.73
2017-08-09T02:31:31.395Z,15.74
2017-08-09T02:32:31.410Z,15.73
2017-08-09T02:33:31.068Z,15.78
2017-08-09T02:34:31.710Z,15.75
2017-08-09T02:35:31.380Z,15.73
2017-08-09T02:36:31.057Z,15.77
2017-08-09T02:37:31.722Z,15.74
2017-08-09T02:38:31.687Z,15.73
2017-08-09T02:39:31.690Z,15.8
2017-08-09T02:40:31.357Z,15.77
2017-08-09T02:41:31.355Z,15.71
2017-08-09T02:42:31.030Z,15.83
2017-08-09T02:43:31.366Z,15.84
2017-08-09T02:44:31.661Z,15.93
2017-08-09T02:45:31.689Z,15.89
2017-08-09T02:46:31.374Z,15.84
2017-08-09T02:47:31.652Z,15.89
2017-08-09T02:48:31.645Z,15.93
2017-08-09T02:49:31.011Z,15.92
2017-08-09T02:50:31.000Z,15.83
2017-08-09T02:51:30.999Z,15.88
2017-08-09T02:52:31.325Z,15.91
2017-08-09T02:53:31.628Z,15.88
2017-08-09T02:54:31.623Z,15.91
2017-08-09T02:55:31.295Z,15.84
2017-08-09T02:56:31.617Z,15.83
2017-08-09T02:57:31.607Z,15.84
2017-08-09T02:58:31.304Z,15.81
2017-08-09T02:59:31.283Z,15.92
2017-08-09T03:00:31.604Z,15.93
2017-08-09T03:01:31.592Z,15.86
2017-08-09T03:02:31.614Z,15.84
2017-08-09T03:03:31.611Z,15.88
2017-08-09T03:04:31.591Z,15.89
2017-08-09T03:05:31.582Z,15.83
2017-08-09T03:06:31.287Z,15.91
2017-08-09T03:07:31.568Z,15.88
2017-08-09T03:08:31.242Z,15.89
2017-08-09T03:09:30.923Z,15.91
2017-08-09T03:10:31.569Z,15.89
2017-08-09T03:11:30.910Z,15.91
2017-08-09T03:12:31.558Z,15.81
2017-08-09T03:13:31.225Z,15.92
2017-08-09T03:14:31.220Z,15.91
2017-08-09T03:15:31.543Z,15.88
2017-08-09T03:16:31.237Z,15.89
2017-08-09T03:17:31.206Z,15.88
2017-08-09T03:18:31.203Z,15.91
2017-08-09T03:19:31.217Z,16
2017-08-09T03:20:31.515Z,15.88
2017-08-09T03:21:31.510Z,15.99
2017-08-09T03:22:31.530Z,15.95
2017-08-09T03:23:31.187Z,15.95
2017-08-09T03:24:31.225Z,15.96
2017-08-09T03:25:31.177Z,15.92
2017-08-09T03:26:31.502Z,15.95
2017-08-09T03:27:31.164Z,15.93
2017-08-09T03:28:31.484Z,15.96
2017-08-09T03:29:31.159Z,15.98
2017-08-09T03:30:31.474Z,15.96
2017-08-09T03:31:31.479Z,15.92
2017-08-09T03:32:30.860Z,15.99
2017-08-09T03:33:31.463Z,15.99
2017-08-09T03:34:31.147Z,15.98
2017-08-09T03:35:31.473Z,16.02
2017-08-09T03:36:31.452Z,15.96
2017-08-09T03:37:31.123Z,15.95
2017-08-09T03:38:30.824Z,15.95
2017-08-09T03:39:30.798Z,15.95
2017-08-09T03:40:31.118Z,15.92
2017-08-09T03:41:31.111Z,15.95
2017-08-09T03:42:31.430Z,15.95
2017-08-09T03:43:31.102Z,15.95
2017-08-09T03:44:31.432Z,15.93
2017-08-09T03:45:31.434Z,15.96
2017-08-09T03:46:31.098Z,15.83
2017-08-09T03:47:31.404Z,15.81
2017-08-09T03:48:31.098Z,15.88
2017-08-09T03:49:31.398Z,15.83
2017-08-09T03:50:31.393Z,15.84
2017-08-09T03:51:31.388Z,15.84
2017-08-09T03:52:31.401Z,15.86
2017-08-09T03:53:31.386Z,15.86
2017-08-09T03:54:31.381Z,15.84
2017-08-09T03:55:31.574Z,15.86
2017-08-09T03:56:31.393Z,15.86
2017-08-09T03:57:31.393Z,15.95
2017-08-09T03:58:31.039Z,15.91
2017-08-09T03:59:31.374Z,15.96
2017-08-09T04:00:31.353Z,15.84
2017-08-09T04:01:31.350Z,15.92
2017-08-09T04:02:31.352Z,15.89
2017-08-09T04:03:31.379Z,15.89
2017-08-09T04:04:31.337Z,15.95
2017-08-09T04:05:30.723Z,15.96
2017-08-09T04:06:31.016Z,15.86
2017-08-09T04:07:30.687Z,15.99
2017-08-09T04:08:31.018Z,15.98
2017-08-09T04:09:31.046Z,15.96
2017-08-09T04:10:31.008Z,15.92
2017-08-09T04:11:31.313Z,15.96
2017-08-09T04:12:30.680Z,15.99
2017-08-09T04:13:31.302Z,16.02
2017-08-09T04:14:30.677Z,16.06
2017-08-09T04:15:31.297Z,16.07
2017-08-09T04:16:31.315Z,16.02
2017-08-09T04:17:30.967Z,16.07
2017-08-09T04:18:30.977Z,15.98
2017-08-09T04:19:30.959Z,16.08
2017-08-09T04:20:31.296Z,16.07
2017-08-09T04:21:30.953Z,16.07
2017-08-09T04:22:31.267Z,16.08
2017-08-09T04:23:31.302Z,16.1
2017-08-09T04:24:30.938Z,16.02
2017-08-09T04:25:31.266Z,16.13
2017-08-09T04:26:31.250Z,16.11
2017-08-09T04:27:30.931Z,16.13
2017-08-09T04:28:30.922Z,16.16
2017-08-09T04:29:30.920Z,16.14
2017-08-09T04:30:31.240Z,16.11
2017-08-09T04:31:31.243Z,16.13
2017-08-09T04:32:30.906Z,16.13
2017-08-09T04:33:31.221Z,16.1
2017-08-09T04:34:30.907Z,16.16
2017-08-09T04:35:30.573Z,16.13
2017-08-09T04:36:31.211Z,16.1
2017-08-09T04:37:30.908Z,16.07
2017-08-09T04:38:30.883Z,16.14
2017-08-09T04:39:30.882Z,16.18
2017-08-09T04:40:30.880Z,16.11
2017-08-09T04:41:30.875Z,16.21
2017-08-09T04:42:31.185Z,16.1
2017-08-09T04:43:31.199Z,16.18
2017-08-09T04:44:31.180Z,16.21
2017-08-09T04:45:30.872Z,16.22
2017-08-09T04:46:30.873Z,16.16
2017-08-09T04:47:30.849Z,16.18
2017-08-09T04:48:30.841Z,16.18
2017-08-09T04:49:30.841Z,16.11
2017-08-09T04:50:31.157Z,16.18
2017-08-09T04:51:30.829Z,16.21
2017-08-09T04:52:31.146Z,16.13
2017-08-09T04:53:31.145Z,16.27
2017-08-09T04:54:31.140Z,16.25
2017-08-09T04:55:30.817Z,16.25
2017-08-09T04:56:31.144Z,16.25
2017-08-09T04:57:30.835Z,16.21
2017-08-09T04:58:30.849Z,16.32
2017-08-09T04:59:30.799Z,16.25
2017-08-09T05:00:31.120Z,16.29
2017-08-09T05:01:31.122Z,16.3
2017-08-09T05:02:31.129Z,16.25
2017-08-09T05:03:31.103Z,16.26
2017-08-09T05:04:30.809Z,16.29
2017-08-09T05:05:31.115Z,16.34
2017-08-09T05:06:31.126Z,16.34
2017-08-09T05:07:30.468Z,16.44
2017-08-09T05:08:30.786Z,16.4
2017-08-09T05:09:30.765Z,16.37
2017-08-09T05:10:31.080Z,16.37
2017-08-09T05:11:30.439Z,16.45
2017-08-09T05:12:31.083Z,16.48
2017-08-09T05:13:30.747Z,16.45
2017-08-09T05:14:31.063Z,16.49
2017-08-09T05:15:31.083Z,16.58
2017-08-09T05:16:31.059Z,16.57
2017-08-09T05:17:30.731Z,16.59
2017-08-09T05:18:31.055Z,16.69
2017-08-09T05:19:31.044Z,16.65
2017-08-09T05:20:30.400Z,16.67
2017-08-09T05:21:31.056Z,16.74
2017-08-09T05:22:31.036Z,16.8
2017-08-09T05:23:30.707Z,16.8
2017-08-09T05:24:30.427Z,16.76
2017-08-09T05:25:30.700Z,16.73
2017-08-09T05:26:31.018Z,16.7
2017-08-09T05:27:31.016Z,16.76
2017-08-09T05:28:30.723Z,16.77
2017-08-09T05:29:30.372Z,16.84
2017-08-09T05:30:30.684Z,16.84
2017-08-09T05:31:30.699Z,16.87
2017-08-09T05:32:31.012Z,16.91
2017-08-09T05:33:30.696Z,16.99
2017-08-09T05:34:30.672Z,16.97
2017-08-09T05:35:30.673Z,17.07
2017-08-09T05:36:30.989Z,17.06
2017-08-09T05:37:30.981Z,17.1
2017-08-09T05:38:30.678Z,17.06
2017-08-09T05:39:30.977Z,17.18
2017-08-09T05:40:30.972Z,17.18
2017-08-09T05:41:30.648Z,17.27
2017-08-09T05:42:30.964Z,17.2
2017-08-09T05:43:30.966Z,17.24
2017-08-09T05:44:30.647Z,17.3
2017-08-09T05:45:30.313Z,17.39
2017-08-09T05:46:30.990Z,17.31
2017-08-09T05:47:30.949Z,17.46
2017-08-09T05:48:30.623Z,17.45
2017-08-09T05:49:30.644Z,17.57
2017-08-09T05:50:30.635Z,17.57
2017-08-09T05:51:30.614Z,17.45
2017-08-09T05:52:30.291Z,17.58
2017-08-09T05:53:30.290Z,17.66
2017-08-09T05:54:30.292Z,17.63
2017-08-09T05:55:30.934Z,17.69
2017-08-09T05:56:30.922Z,17.73
2017-08-09T05:57:30.605Z,17.86
2017-08-09T05:58:30.595Z,17.77
2017-08-09T05:59:30.614Z,17.88
2017-08-09T06:00:30.920Z,17.88
2017-08-09T06:01:30.267Z,17.87
2017-08-09T06:02:30.912Z,17.99
2017-08-09T06:03:30.928Z,17.96
2017-08-09T06:04:30.899Z,17.96
2017-08-09T06:05:30.913Z,18.08
2017-08-09T06:06:30.916Z,18.1
2017-08-09T06:07:30.251Z,17.99
2017-08-09T06:08:30.888Z,18.03
2017-08-09T06:09:30.909Z,17.98
2017-08-09T06:10:30.900Z,18.05
2017-08-09T06:11:30.883Z,18.06
2017-08-09T06:12:30.892Z,18.17
2017-08-09T06:13:30.555Z,18.19
2017-08-09T06:14:30.574Z,18.2
2017-08-09T06:15:30.870Z,18.29
2017-08-09T06:16:30.564Z,18.27
2017-08-09T06:17:30.556Z,18.27
2017-08-09T06:18:30.544Z,18.32
2017-08-09T06:19:30.873Z,18.35
2017-08-09T06:20:30.544Z,18.35
2017-08-09T06:21:30.541Z,18.35
2017-08-09T06:22:30.216Z,18.42
2017-08-09T06:23:30.538Z,18.53
2017-08-09T06:24:30.853Z,18.5
2017-08-09T06:25:30.857Z,18.57
2017-08-09T06:26:30.849Z,18.65
2017-08-09T06:27:30.531Z,18.69
2017-08-09T06:28:30.845Z,18.76
2017-08-09T06:29:30.535Z,18.76
2017-08-09T06:30:30.843Z,18.9
2017-08-09T06:31:30.215Z,18.86
2017-08-09T06:32:30.837Z,18.94
2017-08-09T06:33:30.524Z,18.94
2017-08-09T06:34:30.831Z,19.1
2017-08-09T06:35:30.829Z,19.17
2017-08-09T06:36:30.193Z,19.28
2017-08-09T06:37:30.184Z,19.2
2017-08-09T06:38:30.509Z,19.24
2017-08-09T06:39:30.825Z,19.28
2017-08-09T06:40:30.497Z,19.28
2017-08-09T06:41:30.817Z,19.24
2017-08-09T06:42:30.179Z,19.27
2017-08-09T06:43:30.822Z,19.12
2017-08-09T06:44:30.497Z,19.05
2017-08-09T06:45:30.494Z,18.96
2017-08-09T06:46:30.507Z,18.87
2017-08-09T06:47:30.492Z,18.9
2017-08-09T06:48:30.808Z,18.76
2017-08-09T06:49:30.487Z,18.75
2017-08-09T06:50:30.163Z,18.82
2017-08-09T06:51:30.802Z,18.91
2017-08-09T06:52:30.488Z,18.94
2017-08-09T06:53:30.818Z,19.07
2017-08-09T06:54:30.476Z,19.28
2017-08-09T06:55:30.475Z,19.28
2017-08-09T06:56:30.830Z,19.5
2017-08-09T06:57:30.475Z,19.75
2017-08-09T06:58:30.471Z,20.2
2017-08-09T06:59:30.489Z,20.9
2017-08-09T07:00:30.471Z,21.53
2017-08-09T07:01:30.792Z,22.15
2017-08-09T07:02:30.829Z,22.44
2017-08-09T07:03:30.879Z,22.59
2017-08-09T07:04:30.467Z,22.41
2017-08-09T07:05:30.826Z,22.48
2017-08-09T07:06:30.791Z,22.75
2017-08-09T07:07:30.806Z,23.38
2017-08-09T07:08:30.472Z,23.92
2017-08-09T07:09:30.785Z,24.44
2017-08-09T07:10:30.793Z,24.97
2017-08-09T07:11:30.798Z,25.49
2017-08-09T07:12:30.786Z,25.88
2017-08-09T07:13:30.481Z,26.27
2017-08-09T07:14:30.792Z,26.54
2017-08-09T07:15:30.795Z,26.67
2017-08-09T07:16:30.483Z,26.78
2017-08-09T07:17:30.798Z,26.89
2017-08-09T07:18:30.829Z,27.01
2017-08-09T07:19:30.806Z,27.15
2017-08-09T07:20:30.827Z,26.99
2017-08-09T07:21:30.809Z,26.91
2017-08-09T07:22:30.811Z,26.63
2017-08-09T07:23:30.491Z,26.23
2017-08-09T07:24:30.530Z,25.88
2017-08-09T07:25:30.187Z,25.64
2017-08-09T07:26:30.503Z,25.38
2017-08-09T07:27:30.183Z,25.02
2017-08-09T07:28:31.930Z,24.58
2017-08-09T07:29:30.856Z,24.21
2017-08-09T07:30:30.835Z,23.77
2017-08-09T07:31:30.859Z,23.56
2017-08-09T07:32:30.216Z,24.08
2017-08-09T07:33:30.845Z,24.66
2017-08-09T07:34:30.857Z,25.26
2017-08-09T07:35:30.884Z,25.32
2017-08-09T07:36:30.210Z,25.27
2017-08-09T07:37:30.541Z,25.19
2017-08-09T07:38:30.883Z,25.05
2017-08-09T07:39:30.538Z,24.67
2017-08-09T07:40:30.861Z,24.17
2017-08-09T07:41:30.908Z,23.78
2017-08-09T07:42:30.866Z,23.53
2017-08-09T07:43:30.871Z,23.12
2017-08-09T07:44:30.558Z,22.85
2017-08-09T07:45:30.875Z,22.54
2017-08-09T07:46:30.892Z,22.27
2017-08-09T07:47:30.578Z,22.05
2017-08-09T07:48:30.567Z,22
2017-08-09T07:49:30.573Z,21.71
2017-08-09T07:50:30.906Z,21.97
2017-08-09T07:51:30.575Z,22.38
2017-08-09T07:52:30.259Z,23.1
2017-08-09T07:53:30.912Z,23.97
2017-08-09T07:54:30.571Z,24.55
2017-08-09T07:55:30.910Z,25.19
2017-08-09T07:56:30.581Z,25.64
2017-08-09T07:57:30.946Z,25.94
2017-08-09T07:58:30.918Z,25.93
2017-08-09T07:59:30.899Z,25.89
2017-08-09T08:00:30.604Z,25.74
2017-08-09T08:01:30.634Z,25.51
2017-08-09T08:02:30.582Z,25.27
2017-08-09T08:03:30.930Z,24.97
2017-08-09T08:04:30.906Z,25
2017-08-09T08:05:30.908Z,24.93
2017-08-09T08:06:30.589Z,24.86
2017-08-09T08:07:30.909Z,24.56
2017-08-09T08:08:30.611Z,24.44
2017-08-09T08:09:30.914Z,24.27
2017-08-09T08:10:30.913Z,24.17
2017-08-09T08:11:30.944Z,23.89
2017-08-09T08:12:30.922Z,23.78
2017-08-09T08:13:30.918Z,23.64
2017-08-09T08:14:30.940Z,23.5
2017-08-09T08:15:30.944Z,23.19
2017-08-09T08:16:30.923Z,22.79
2017-08-09T08:17:30.923Z,22.55
2017-08-09T08:18:30.928Z,22.39
2017-08-09T08:19:30.925Z,22.24
2017-08-09T08:20:30.945Z,22.2
2017-08-09T08:21:30.607Z,22.11
2017-08-09T08:22:30.631Z,21.96
2017-08-09T08:23:30.949Z,21.78
2017-08-09T08:24:30.626Z,21.83
2017-08-09T08:25:30.934Z,21.86
2017-08-09T08:26:30.945Z,21.73
2017-08-09T08:27:30.939Z,21.74
2017-08-09T08:28:30.933Z,21.78
2017-08-09T08:29:30.622Z,21.7
2017-08-09T08:30:30.940Z,21.77
2017-08-09T08:31:30.936Z,21.9
2017-08-09T08:32:30.621Z,21.9
2017-08-09T08:33:30.960Z,21.94
2017-08-09T08:34:30.617Z,22.18
2017-08-09T08:35:30.940Z,22.26
2017-08-09T08:36:30.618Z,22.26
2017-08-09T08:37:30.940Z,22.34
2017-08-09T08:38:30.944Z,22.33
2017-08-09T08:39:30.650Z,22.34
2017-08-09T08:40:30.943Z,22.51
2017-08-09T08:41:30.965Z,22.66
2017-08-09T08:42:30.626Z,22.61
2017-08-09T08:43:30.956Z,22.76
2017-08-09T08:44:30.953Z,22.85
2017-08-09T08:45:30.966Z,22.75
2017-08-09T08:46:30.632Z,22.73
2017-08-09T08:47:30.948Z,22.88
2017-08-09T08:48:30.636Z,23.03
2017-08-09T08:49:30.635Z,23
2017-08-09T08:50:30.966Z,23.03
2017-08-09T08:51:30.664Z,23.01
2017-08-09T08:52:30.654Z,23.03
2017-08-09T08:53:30.352Z,23.01
2017-08-09T08:54:30.640Z,23.07
2017-08-09T08:55:30.641Z,23.29
2017-08-09T08:56:30.960Z,23.22
2017-08-09T08:57:30.642Z,23.1
2017-08-09T08:58:30.981Z,23
2017-08-09T08:59:30.984Z,22.85
2017-08-09T09:00:30.646Z,22.63
2017-08-09T09:01:30.985Z,22.38
2017-08-09T09:02:30.990Z,22.16
2017-08-09T09:03:30.974Z,21.93
2017-08-09T09:04:30.975Z,21.74
2017-08-09T09:05:30.989Z,21.51
2017-08-09T09:06:30.985Z,21.64
2017-08-09T09:07:30.670Z,21.78
2017-08-09T09:08:30.976Z,22.02
2017-08-09T09:09:31.004Z,21.93
2017-08-09T09:10:30.660Z,22.08
2017-08-09T09:11:30.985Z,22.29
2017-08-09T09:12:30.977Z,22.34
2017-08-09T09:13:30.984Z,22.55
2017-08-09T09:14:30.984Z,22.55
2017-08-09T09:15:30.982Z,22.57
2017-08-09T09:16:30.665Z,22.57
2017-08-09T09:17:30.999Z,22.57
2017-08-09T09:18:30.676Z,22.76
2017-08-09T09:19:30.994Z,22.91
2017-08-09T09:20:30.348Z,23.01
2017-08-09T09:21:30.987Z,23.16
2017-08-09T09:22:30.991Z,23.19
2017-08-09T09:23:30.988Z,23.22
2017-08-09T09:24:30.998Z,23.28
2017-08-09T09:25:30.999Z,23.26
2017-08-09T09:26:31.005Z,23.21
2017-08-09T09:27:31.019Z,23.28
2017-08-09T09:28:30.671Z,23.25
2017-08-09T09:29:31.023Z,23.24
2017-08-09T09:30:30.675Z,23.38
2017-08-09T09:31:31.016Z,23.35
2017-08-09T09:32:30.356Z,23.37
2017-08-09T09:33:30.998Z,23.42
2017-08-09T09:34:30.679Z,23.44
2017-08-09T09:35:31.002Z,23.6
2017-08-09T09:36:31.025Z,23.63
2017-08-09T09:37:31.005Z,23.59
2017-08-09T09:38:31.003Z,23.59
2017-08-09T09:39:30.684Z,23.67
2017-08-09T09:40:31.050Z,23.72
2017-08-09T09:41:31.022Z,23.82
2017-08-09T09:42:30.691Z,23.72
2017-08-09T09:43:31.007Z,23.74
2017-08-09T09:44:30.372Z,23.67
2017-08-09T09:45:30.704Z,23.5
2017-08-09T09:46:31.044Z,23.34
2017-08-09T09:47:30.729Z,23.24
2017-08-09T09:48:30.695Z,23.16
2017-08-09T09:49:30.721Z,23.16
2017-08-09T09:50:31.018Z,23.29
2017-08-09T09:51:30.703Z,23.28
2017-08-09T09:52:31.026Z,23.53
2017-08-09T09:53:31.030Z,23.67
2017-08-09T09:54:31.025Z,23.74
2017-08-09T09:55:31.042Z,23.78
2017-08-09T09:56:31.074Z,23.84
2017-08-09T09:57:31.026Z,23.85
2017-08-09T09:58:31.028Z,23.89
2017-08-09T09:59:31.038Z,24
2017-08-09T10:00:31.070Z,23.99
2017-08-09T10:01:31.049Z,24.04
2017-08-09T10:02:30.713Z,24.14
2017-08-09T10:03:31.037Z,24.07
2017-08-09T10:04:30.725Z,24
2017-08-09T10:05:31.040Z,23.97
2017-08-09T10:06:31.061Z,23.85
2017-08-09T10:07:30.723Z,23.79
2017-08-09T10:08:31.041Z,23.81
2017-08-09T10:09:31.048Z,23.89
2017-08-09T10:10:31.048Z,23.82
2017-08-09T10:11:31.072Z,23.79
2017-08-09T10:12:31.059Z,23.81
2017-08-09T10:13:31.072Z,23.82
2017-08-09T10:14:30.733Z,23.85
2017-08-09T10:15:31.057Z,23.92
2017-08-09T10:16:31.066Z,24.08
2017-08-09T10:17:31.079Z,24.02
2017-08-09T10:18:30.742Z,24.12
2017-08-09T10:19:30.741Z,24.04
2017-08-09T10:20:31.059Z,23.96
2017-08-09T10:21:30.766Z,24.03
2017-08-09T10:22:30.751Z,24.17
2017-08-09T10:23:30.752Z,24.19
2017-08-09T10:24:31.094Z,24.22
2017-08-09T10:25:30.755Z,24.26
2017-08-09T10:26:31.084Z,24.32
2017-08-09T10:27:30.768Z,24.37
2017-08-09T10:28:30.754Z,24.34
2017-08-09T10:29:31.075Z,24.37
2017-08-09T10:30:31.079Z,24.46
2017-08-09T10:31:31.085Z,24.36
2017-08-09T10:32:30.761Z,24.39
2017-08-09T10:33:30.798Z,24.39
2017-08-09T10:34:31.085Z,24.42
2017-08-09T10:35:30.768Z,24.32
2017-08-09T10:36:31.094Z,24.44
2017-08-09T10:37:30.767Z,24.39
2017-08-09T10:38:31.094Z,24.36
2017-08-09T10:39:31.124Z,24.36
2017-08-09T10:40:30.772Z,24.3
2017-08-09T10:41:30.497Z,24.17
2017-08-09T10:42:30.789Z,24.14
2017-08-09T10:43:30.477Z,24.17
2017-08-09T10:44:30.790Z,24.14
2017-08-09T10:45:31.125Z,24.12
2017-08-09T10:46:30.781Z,24.22
2017-08-09T10:47:31.109Z,24.15
2017-08-09T10:48:30.794Z,23.97
2017-08-09T10:49:30.466Z,23.87
2017-08-09T10:50:31.107Z,23.97
2017-08-09T10:51:31.114Z,24.08
2017-08-09T10:52:30.836Z,24.14
2017-08-09T10:53:30.792Z,24.21
2017-08-09T10:54:30.795Z,24.21
2017-08-09T10:55:30.799Z,24.19
2017-08-09T10:56:30.801Z,24.22
2017-08-09T10:57:30.802Z,24.27
2017-08-09T10:58:31.123Z,24.37
2017-08-09T10:59:30.806Z,24.36
2017-08-09T11:00:31.128Z,24.22
2017-08-09T11:01:30.811Z,24.03
2017-08-09T11:02:30.809Z,23.9
2017-08-09T11:03:30.807Z,23.96
2017-08-09T11:04:30.822Z,23.97
2017-08-09T11:05:30.814Z,24.09
2017-08-09T11:06:30.817Z,24.17
2017-08-09T11:07:30.821Z,24.17
2017-08-09T11:08:30.817Z,24.32
2017-08-09T11:09:30.828Z,24.3
2017-08-09T11:10:31.138Z,24.3
2017-08-09T11:11:31.145Z,24.45
2017-08-09T11:12:31.143Z,24.37
2017-08-09T11:13:30.841Z,24.4
2017-08-09T11:14:30.830Z,24.55
2017-08-09T11:15:31.148Z,24.52
2017-08-09T11:16:30.828Z,24.54
2017-08-09T11:17:30.828Z,24.61
2017-08-09T11:18:30.835Z,24.54
2017-08-09T11:19:30.832Z,24.58
2017-08-09T11:20:31.170Z,24.67
2017-08-09T11:21:31.160Z,24.71
2017-08-09T11:22:31.166Z,24.61
2017-08-09T11:23:30.856Z,24.55
2017-08-09T11:24:30.551Z,24.59
2017-08-09T11:25:31.174Z,24.51
2017-08-09T11:26:31.175Z,24.42
2017-08-09T11:27:31.173Z,24.48
2017-08-09T11:28:31.172Z,24.48
2017-08-09T11:29:30.852Z,24.52
2017-08-09T11:30:31.202Z,24.56
2017-08-09T11:31:30.862Z,24.49
2017-08-09T11:32:31.206Z,24.44
2017-08-09T11:33:30.860Z,24.3
2017-08-09T11:34:30.884Z,24.17
2017-08-09T11:35:31.186Z,24.12
2017-08-09T11:36:30.871Z,24.11
2017-08-09T11:37:31.189Z,24.26
2017-08-09T11:38:31.188Z,24.24
2017-08-09T11:39:30.559Z,24.17
2017-08-09T11:40:31.194Z,24.21
2017-08-09T11:41:30.876Z,24.34
2017-08-09T11:42:30.875Z,24.4
2017-08-09T11:43:31.193Z,24.45
2017-08-09T11:44:31.198Z,24.51
2017-08-09T11:45:31.204Z,24.45
2017-08-09T11:46:31.225Z,24.36
2017-08-09T11:47:31.230Z,24.19
2017-08-09T11:48:31.213Z,24.02
2017-08-09T11:49:31.218Z,23.74
2017-08-09T11:50:31.222Z,23.75
2017-08-09T11:51:30.895Z,23.78
2017-08-09T11:52:31.216Z,23.81
2017-08-09T11:53:30.902Z,23.93
2017-08-09T11:54:31.238Z,24.09
2017-08-09T11:55:31.220Z,23.97
2017-08-09T11:56:31.238Z,23.82
2017-08-09T11:57:31.229Z,23.79
2017-08-09T11:58:30.923Z,23.74
2017-08-09T11:59:31.225Z,23.66
2017-08-09T12:00:31.239Z,23.81
2017-08-09T12:01:31.227Z,23.96
2017-08-09T12:02:30.915Z,24.12
2017-08-09T12:03:30.594Z,24.29
2017-08-09T12:04:31.247Z,24.34
2017-08-09T12:05:30.613Z,24.44
2017-08-09T12:06:30.596Z,24.45
2017-08-09T12:07:30.922Z,24.42
2017-08-09T12:08:31.248Z,24.51
2017-08-09T12:09:31.250Z,24.44
2017-08-09T12:10:30.928Z,24.4
2017-08-09T12:11:30.982Z,24.33
2017-08-09T12:12:31.252Z,24.39
2017-08-09T12:13:31.265Z,24.27
2017-08-09T12:14:30.953Z,24.29
2017-08-09T12:15:31.273Z,24.32
2017-08-09T12:16:31.261Z,24.34
2017-08-09T12:17:31.262Z,24.3
2017-08-09T12:18:30.939Z,24.26
2017-08-09T12:19:31.297Z,24.22
2017-08-09T12:20:31.291Z,24.17
2017-08-09T12:21:30.958Z,24.09
2017-08-09T12:22:31.290Z,24.07
2017-08-09T12:23:31.290Z,24.17
2017-08-09T12:24:31.274Z,24.29
2017-08-09T12:25:31.279Z,24.36
2017-08-09T12:26:31.284Z,24.54
2017-08-09T12:27:31.288Z,24.7
2017-08-09T12:28:31.287Z,24.83
2017-08-09T12:29:31.282Z,24.94
2017-08-09T12:30:31.287Z,25.02
2017-08-09T12:31:31.295Z,24.87
2017-08-09T12:32:31.302Z,24.67
2017-08-09T12:33:31.287Z,24.61
2017-08-09T12:34:31.292Z,24.4
2017-08-09T12:35:30.973Z,24.46
2017-08-09T12:36:31.299Z,24.52
2017-08-09T12:37:31.304Z,24.66
2017-08-09T12:38:31.301Z,24.7
2017-08-09T12:39:31.303Z,24.96
2017-08-09T12:40:31.311Z,25.07
2017-08-09T12:41:30.996Z,25.07
2017-08-09T12:42:31.347Z,25.04
2017-08-09T12:43:30.990Z,24.97
2017-08-09T12:44:30.997Z,24.97
2017-08-09T12:45:31.314Z,25.04
2017-08-09T12:46:31.002Z,25.02
2017-08-09T12:47:31.024Z,24.96
2017-08-09T12:48:31.329Z,24.89
2017-08-09T12:49:31.321Z,24.94
2017-08-09T12:50:31.004Z,24.82
2017-08-09T12:51:31.328Z,24.77
2017-08-09T12:52:31.029Z,24.63
2017-08-09T12:53:30.693Z,24.58
2017-08-09T12:54:31.365Z,24.59
2017-08-09T12:55:31.871Z,24.74